Time;durP1;ratioP1;P1;durP2;ratioP2;P2;SDS_P1;SDS_P2;PMS_P1;PMS_P2;Temp;Humidity;BMP_temperature;BMP_pressure;BME280_temperature;BME280_humidity;BME280_pressure;Samples;Min_cycle;Max_cycle;Signal;HPM_P1;HPM_P2
2022/01/13 00:00:43;;;;;;;541.63;72.35;;;4.40;99.90;;;;;;5111722;28;20483;-69
2022/01/13 00:03:09;;;;;;;716.58;81.05;;;4.30;99.90;;;;;;5112075;28;20047;-69
2022/01/13 00:05:37;;;;;;;604.78;73.53;;;4.20;99.90;;;;;;5112216;28;20044;-69
2022/01/13 00:08:03;;;;;;;648.35;79.18;;;4.40;99.90;;;;;;5110530;28;20094;-69
2022/01/13 00:10:28;;;;;;;707.55;81.20;;;3.80;99.90;;;;;;5111909;28;20071;-69
2022/01/13 00:12:59;;;;;;;746.05;80.85;;;4.20;99.90;;;;;;5112112;28;20487;-69
2022/01/13 00:15:45;;;;;;;774.30;78.57;;;;;;;;;;5110603;28;20040;-69
2022/01/13 00:18:37;;;;;;;847.42;81.43;;;4.30;99.90;;;;;;5093504;28;20097;-69
2022/01/13 00:24:04;;;;;;;815.47;80.03;;;4.00;99.90;;;;;;5062907;28;20055;-69
2022/01/13 00:26:33;;;;;;;888.97;84.07;;;;;;;;;;5112105;28;20044;-69
2022/01/13 00:29:02;;;;;;;950.15;87.57;;;3.70;99.90;;;;;;5111769;28;20047;-69
2022/01/13 00:31:32;;;;;;;970.95;85.45;;;5.00;99.90;;;;;;5110655;28;20503;-69
2022/01/13 00:34:01;;;;;;;765.72;75.95;;;3.80;99.90;;;;;;5110500;28;20495;-68
2022/01/13 00:36:37;;;;;;;796.53;73.35;;;4.70;99.90;;;;;;5110484;28;20407;-69
2022/01/13 00:39:05;;;;;;;764.22;75.45;;;4.30;99.90;;;;;;5111372;28;20031;-69
2022/01/13 00:41:33;;;;;;;910.97;79.53;;;4.40;99.90;;;;;;5110437;28;20043;-69
2022/01/13 00:44:00;;;;;;;929.65;81.22;;;4.30;99.90;;;;;;5111900;28;20122;-69
2022/01/13 00:46:38;;;;;;;891.35;80.25;;;4.30;99.90;;;;;;5109748;28;20482;-69
2022/01/13 00:49:04;;;;;;;927.63;80.35;;;4.20;99.90;;;;;;5110078;28;20039;-68
2022/01/13 00:51:31;;;;;;;813.67;74.47;;;;;;;;;;5109302;28;20043;-67
2022/01/13 00:54:03;;;;;;;878.25;75.57;;;;;;;;;;5109516;28;20052;-68
2022/01/13 00:56:30;;;;;;;782.08;73.13;;;;;;;;;;5109819;28;20143;-68
2022/01/13 00:58:56;;;;;;;854.30;73.90;;;4.90;99.90;;;;;;5111056;28;20118;-68
2022/01/13 01:01:21;;;;;;;893.55;76.13;;;4.80;99.90;;;;;;5109892;28;20138;-68
2022/01/13 01:03:48;;;;;;;691.25;66.22;;;4.20;99.90;;;;;;5110793;28;20031;-67
2022/01/13 01:06:14;;;;;;;744.50;68.53;;;4.60;99.90;;;;;;5110063;28;20141;-67
2022/01/13 01:08:42;;;;;;;723.28;66.10;;;;;;;;;;5109115;28;20058;-68
2022/01/13 01:11:08;;;;;;;678.00;65.88;;;4.90;99.90;;;;;;5110771;28;20040;-68
2022/01/13 01:13:35;;;;;;;826.15;71.30;;;4.20;99.90;;;;;;5110974;28;20042;-67
2022/01/13 01:16:11;;;;;;;845.97;72.00;;;4.50;99.90;;;;;;5111057;28;20084;-68
2022/01/13 01:18:55;;;;;;;867.65;73.30;;;4.40;99.90;;;;;;5109444;28;20411;-68
2022/01/13 01:26:55;;;;;;;911.92;74.03;;;4.00;99.90;;;;;;5110387;28;20067;-69
2022/01/13 01:31:51;;;;;;;874.83;74.10;;;4.80;99.90;;;;;;5110815;28;20062;-69
2022/01/13 01:37:26;;;;;;;743.38;67.90;;;4.40;99.90;;;;;;5039910;28;20044;-69
2022/01/13 01:39:53;;;;;;;919.58;76.05;;;4.60;99.90;;;;;;5017925;28;20123;-69
2022/01/13 01:42:20;;;;;;;766.35;69.00;;;4.50;99.90;;;;;;5033794;28;20048;-69
2022/01/13 01:44:50;;;;;;;844.53;68.40;;;4.60;99.90;;;;;;5044311;28;20033;-69
2022/01/13 01:47:17;;;;;;;790.42;67.35;;;4.60;99.90;;;;;;5031501;28;20519;-69
2022/01/13 01:49:47;;;;;;;782.42;67.80;;;4.50;99.90;;;;;;5015313;28;20053;-69
2022/01/13 01:52:16;;;;;;;861.10;69.05;;;4.50;99.90;;;;;;5021387;28;20194;-68
2022/01/13 01:54:43;;;;;;;893.15;73.70;;;4.60;99.90;;;;;;5043960;28;20053;-68
2022/01/13 01:57:10;;;;;;;872.60;68.93;;;4.40;99.90;;;;;;5017911;28;20037;-68
2022/01/13 01:59:41;;;;;;;855.22;71.18;;;4.50;99.90;;;;;;5015839;28;20033;-69
2022/01/13 02:02:10;;;;;;;888.22;71.97;;;4.70;99.90;;;;;;5045310;28;20122;-68
2022/01/13 02:04:37;;;;;;;819.63;70.97;;;;;;;;;;5019357;28;20064;-68
2022/01/13 02:07:05;;;;;;;812.25;69.70;;;4.50;99.90;;;;;;5029663;28;20052;-68
2022/01/13 02:09:34;;;;;;;932.55;73.18;;;;;;;;;;5042546;28;20184;-68
2022/01/13 02:12:05;;;;;;;916.80;76.47;;;4.70;99.90;;;;;;5027231;28;20405;-69
2022/01/13 02:14:33;;;;;;;859.97;69.13;;;;;;;;;;5072424;28;20357;-68
2022/01/13 02:17:06;;;;;;;799.83;68.80;;;4.60;99.90;;;;;;5090638;28;20046;-67
2022/01/13 02:19:39;;;;;;;810.33;66.70;;;4.60;99.90;;;;;;5106565;28;20043;-69
2022/01/13 02:22:06;;;;;;;911.15;72.60;;;4.60;99.90;;;;;;5090933;28;20112;-68
2022/01/13 02:24:34;;;;;;;694.10;62.75;;;4.60;99.90;;;;;;5108739;28;20048;-68
2022/01/13 02:27:00;;;;;;;770.25;65.78;;;;;;;;;;5107081;28;20031;-68
2022/01/13 02:29:27;;;;;;;734.17;62.78;;;4.80;99.90;;;;;;5108697;28;20040;-69
2022/01/13 02:31:53;;;;;;;738.20;67.05;;;4.70;99.90;;;;;;5108330;28;20517;-68
2022/01/13 02:34:20;;;;;;;685.20;62.95;;;4.90;99.90;;;;;;5109541;28;20040;-68
2022/01/13 02:36:48;;;;;;;581.70;57.60;;;4.90;99.90;;;;;;5109437;28;20075;-68
2022/01/13 02:39:14;;;;;;;634.00;58.65;;;;;;;;;;5108666;28;20375;-68
2022/01/13 02:41:41;;;;;;;697.55;62.55;;;;;;;;;;5109551;28;20530;-68
2022/01/13 02:44:19;;;;;;;679.58;61.10;;;4.80;99.90;;;;;;5109586;28;20032;-69
2022/01/13 02:49:16;;;;;;;563.00;52.95;;;4.50;99.90;;;;;;5106602;28;20097;-68
2022/01/13 02:51:43;;;;;;;531.15;52.33;;;4.70;99.90;;;;;;5119033;28;20044;-68
2022/01/13 02:54:10;;;;;;;606.00;57.38;;;4.70;99.90;;;;;;5109964;28;20051;-68
2022/01/13 02:56:37;;;;;;;604.35;55.47;;;4.70;99.90;;;;;;5109481;28;20039;-69
2022/01/13 02:59:06;;;;;;;624.20;56.67;;;3.80;99.90;;;;;;5107945;28;20471;-69
2022/01/13 03:01:32;;;;;;;674.22;58.03;;;4.80;99.90;;;;;;5106758;28;20043;-69
2022/01/13 03:04:06;;;;;;;646.47;55.70;;;5.60;99.90;;;;;;5109222;28;20032;-69
2022/01/13 03:06:36;;;;;;;607.55;52.75;;;5.00;99.90;;;;;;5107826;28;20096;-69
2022/01/13 03:09:13;;;;;;;640.38;56.28;;;4.80;99.90;;;;;;5109433;28;20173;-69
2022/01/13 03:11:39;;;;;;;613.03;55.50;;;;;;;;;;5109059;28;20039;-69
2022/01/13 03:14:10;;;;;;;669.58;57.47;;;4.70;99.90;;;;;;5109453;28;20495;-69
2022/01/13 03:16:41;;;;;;;612.35;54.10;;;4.80;99.90;;;;;;5107229;28;20040;-68
2022/01/13 03:19:08;;;;;;;664.70;57.50;;;4.80;99.90;;;;;;5107903;28;20036;-68
2022/01/13 03:21:34;;;;;;;641.70;55.60;;;5.10;99.90;;;;;;5091620;28;20071;-69
2022/01/13 03:24:00;;;;;;;644.53;56.72;;;5.50;99.90;;;;;;5108248;28;20098;-68
2022/01/13 03:26:26;;;;;;;547.03;50.72;;;;;;;;;;5109581;28;20047;-69
2022/01/13 03:29:35;;;;;;;625.25;57.70;;;5.00;99.90;;;;;;5108024;28;20138;-69
2022/01/13 03:31:44;;;;;;;609.67;56.90;;;4.90;99.90;;;;;;5099677;28;20047;-70
2022/01/13 03:34:11;;;;;;;531.88;50.42;;;4.90;99.90;;;;;;5112571;28;20150;-69
2022/01/13 03:36:39;;;;;;;519.30;51.33;;;;;;;;;;5112821;28;20055;-69
2022/01/13 03:39:07;;;;;;;631.58;58.70;;;4.80;99.90;;;;;;5112186;28;20514;-69
2022/01/13 03:41:33;;;;;;;565.53;55.75;;;5.50;99.90;;;;;;5111185;28;20056;-69
2022/01/13 03:44:05;;;;;;;598.03;57.75;;;5.10;99.90;;;;;;5112659;28;20038;-69
2022/01/13 03:46:31;;;;;;;578.30;54.78;;;;;;;;;;5112075;28;20479;-69
2022/01/13 03:48:57;;;;;;;587.65;55.40;;;4.60;99.90;;;;;;5112520;28;20039;-69
2022/01/13 03:51:23;;;;;;;532.00;51.15;;;5.60;99.90;;;;;;5112624;28;20380;-69
2022/01/13 03:54:11;;;;;;;545.95;52.22;;;5.40;99.90;;;;;;5127612;27;20043;-69
2022/01/13 03:56:43;;;;;;;555.53;52.90;;;5.00;99.90;;;;;;5080511;28;20097;-69
2022/01/13 03:59:36;;;;;;;462.63;49.25;;;4.80;99.90;;;;;;5112487;28;20036;-68
2022/01/13 04:02:06;;;;;;;455.48;46.53;;;4.30;99.90;;;;;;5109064;28;20092;-69
2022/01/13 04:04:44;;;;;;;512.78;49.88;;;4.90;99.90;;;;;;5112790;28;20047;-69
2022/01/13 04:07:24;;;;;;;449.00;45.35;;;4.80;99.90;;;;;;5108752;28;20561;-69
2022/01/13 04:09:51;;;;;;;481.73;47.53;;;;;;;;;;5108349;28;20094;-69
2022/01/13 04:12:20;;;;;;;434.60;46.42;;;4.40;99.90;;;;;;5112527;28;20047;-69
2022/01/13 04:14:49;;;;;;;554.10;53.03;;;;;;;;;;5112735;28;20070;-68
2022/01/13 04:17:19;;;;;;;481.42;48.28;;;4.70;99.90;;;;;;5111832;28;20495;-69
2022/01/13 04:19:46;;;;;;;473.13;48.78;;;4.80;99.90;;;;;;5109500;28;20039;-69
2022/01/13 04:22:14;;;;;;;462.58;47.92;;;4.70;99.90;;;;;;5110477;28;20166;-69
2022/01/13 04:24:47;;;;;;;490.40;49.92;;;4.80;99.90;;;;;;5112128;28;20047;-69
2022/01/13 04:27:23;;;;;;;475.77;49.40;;;5.00;99.90;;;;;;5111801;28;20100;-68
2022/01/13 04:30:00;;;;;;;521.58;50.85;;;5.40;99.90;;;;;;5110710;28;20079;-69
2022/01/13 04:32:26;;;;;;;486.65;49.47;;;4.90;99.90;;;;;;5110175;28;20067;-69
2022/01/13 04:34:52;;;;;;;451.20;47.85;;;;;;;;;;5111548;27;20071;-69
2022/01/13 04:37:18;;;;;;;483.20;48.67;;;4.80;99.90;;;;;;5110501;28;20190;-69
2022/01/13 04:39:43;;;;;;;498.95;50.20;;;5.00;99.90;;;;;;5111854;28;20138;-69
2022/01/13 04:42:12;;;;;;;482.27;50.65;;;4.70;99.90;;;;;;5124655;27;20479;-69
2022/01/13 04:44:38;;;;;;;466.40;47.92;;;;;;;;;;5093320;28;20054;-69
2022/01/13 04:47:07;;;;;;;497.30;48.90;;;4.70;99.90;;;;;;5109915;28;20047;-69
2022/01/13 04:49:33;;;;;;;470.20;47.00;;;4.80;99.90;;;;;;5110186;28;20045;-69
2022/01/13 04:51:59;;;;;;;444.02;45.53;;;4.70;99.90;;;;;;5111023;28;20102;-68
2022/01/13 04:54:27;;;;;;;458.20;44.95;;;4.60;99.90;;;;;;5111589;28;20448;-69
2022/01/13 04:57:06;;;;;;;399.27;43.47;;;5.10;99.90;;;;;;5111345;28;20170;-69
2022/01/13 04:59:34;;;;;;;403.60;43.30;;;;;;;;;;5111004;28;20055;-69
2022/01/13 05:02:03;;;;;;;438.90;44.58;;;4.50;99.90;;;;;;5111285;28;21499;-69
2022/01/13 05:04:30;;;;;;;456.25;47.60;;;;;;;;;;5108904;28;20114;-68
2022/01/13 05:06:56;;;;;;;515.08;52.85;;;;;;;;;;5111089;28;20128;-69
2022/01/13 05:09:22;;;;;;;486.10;49.72;;;4.90;99.90;;;;;;5111360;28;20043;-69
2022/01/13 05:11:48;;;;;;;431.35;47.03;;;4.50;99.90;;;;;;5110818;28;20399;-69
2022/01/13 05:14:14;;;;;;;402.23;45.03;;;4.40;99.90;;;;;;5109383;28;20038;-69
2022/01/13 05:16:59;;;;;;;400.65;46.38;;;4.30;99.90;;;;;;5125501;27;20051;-69
2022/01/13 05:19:32;;;;;;;405.27;45.40;;;;;;;;;;5115284;27;20411;-69
2022/01/13 05:24:36;;;;;;;424.77;47.47;;;4.90;99.90;;;;;;5110371;28;20048;-69
2022/01/13 05:27:03;;;;;;;474.92;49.25;;;4.50;99.90;;;;;;5110617;27;20487;-69
2022/01/13 05:29:29;;;;;;;486.58;50.70;;;4.80;99.90;;;;;;5109279;28;20040;-69
2022/01/13 05:31:58;;;;;;;477.08;51.42;;;4.80;99.90;;;;;;5110216;28;20095;-69
2022/01/13 05:34:23;;;;;;;502.65;51.28;;;4.50;99.90;;;;;;5110307;28;20051;-69
2022/01/13 05:36:49;;;;;;;501.20;51.33;;;4.40;99.90;;;;;;5110631;28;20403;-69
2022/01/13 05:39:15;;;;;;;463.30;50.25;;;;;;;;;;5108845;28;20046;-69
2022/01/13 05:41:41;;;;;;;477.05;51.40;;;;;;;;;;5109065;28;20047;-69
2022/01/13 05:44:07;;;;;;;414.05;47.08;;;;;;;;;;5110673;28;20039;-69
2022/01/13 05:46:33;;;;;;;480.95;51.45;;;4.50;99.90;;;;;;5108689;28;20491;-69
2022/01/13 05:48:59;;;;;;;447.33;49.35;;;;;;;;;;5110004;28;20039;-69
2022/01/13 05:51:25;;;;;;;527.20;53.60;;;;;;;;;;5108944;28;20422;-69
2022/01/13 05:53:52;;;;;;;448.13;50.25;;;4.60;99.90;;;;;;5109744;28;20138;-69
2022/01/13 05:56:18;;;;;;;421.90;46.90;;;;;;;;;;5108650;28;20050;-68
2022/01/13 05:58:44;;;;;;;433.33;47.15;;;4.50;99.90;;;;;;5108501;28;20035;-69
2022/01/13 06:01:10;;;;;;;458.10;48.95;;;;;;;;;;5108521;28;20049;-69
2022/01/13 06:03:36;;;;;;;456.80;48.28;;;;;;;;;;5108928;28;20086;-69
2022/01/13 06:06:02;;;;;;;473.70;50.03;;;4.40;99.90;;;;;;5107472;28;20550;-68
2022/01/13 06:08:27;;;;;;;520.55;51.15;;;4.50;99.90;;;;;;5109222;28;20063;-69
2022/01/13 06:10:57;;;;;;;572.85;57.10;;;4.50;99.90;;;;;;5110126;28;20093;-69
2022/01/13 06:13:23;;;;;;;585.72;56.13;;;;;;;;;;5109029;28;20840;-69
2022/01/13 06:15:48;;;;;;;547.70;54.25;;;4.70;99.90;;;;;;5093051;27;20044;-70
2022/01/13 06:18:18;;;;;;;473.38;50.63;;;;;;;;;;5096071;28;20051;-69
2022/01/13 06:20:43;;;;;;;415.60;49.25;;;4.50;99.90;;;;;;5108532;27;20054;-69
2022/01/13 06:23:11;;;;;;;435.60;51.50;;;4.50;99.90;;;;;;5112518;27;20050;-69
2022/01/13 06:25:37;;;;;;;399.00;49.20;;;;;;;;;;5107542;28;20487;-69
2022/01/13 06:28:06;;;;;;;375.75;47.75;;;4.60;99.90;;;;;;5110934;27;20052;-69
2022/01/13 06:30:32;;;;;;;409.40;49.03;;;4.60;99.90;;;;;;5109809;28;20082;-69
2022/01/13 06:33:04;;;;;;;452.35;51.00;;;;;;;;;;5107350;28;20122;-69
2022/01/13 06:35:30;;;;;;;346.10;45.78;;;;;;;;;;5089085;28;20089;-69
2022/01/13 06:37:55;;;;;;;440.10;49.97;;;5.00;99.90;;;;;;5107608;28;20089;-69
2022/01/13 06:40:21;;;;;;;405.75;47.97;;;;;;;;;;5110002;28;20031;-69
2022/01/13 06:42:47;;;;;;;394.50;46.85;;;4.60;99.90;;;;;;5109839;28;20425;-69
2022/01/13 06:45:13;;;;;;;406.45;47.25;;;;;;;;;;5110044;28;20533;-69
2022/01/13 06:47:40;;;;;;;414.13;47.97;;;;;;;;;;5110230;28;20042;-69
2022/01/13 06:50:07;;;;;;;334.85;45.30;;;4.60;99.90;;;;;;5108433;28;20044;-70
2022/01/13 06:52:33;;;;;;;332.92;43.97;;;;;;;;;;5107726;28;20077;-70
2022/01/13 06:54:59;;;;;;;402.65;47.30;;;4.50;99.90;;;;;;5108528;28;20521;-69
2022/01/13 06:57:25;;;;;;;369.75;45.70;;;;;;;;;;5109886;28;20445;-69
2022/01/13 06:59:51;;;;;;;363.75;46.33;;;;;;;;;;5108472;28;20044;-69
2022/01/13 07:02:17;;;;;;;311.17;43.83;;;4.50;99.90;;;;;;5108164;28;20035;-69
2022/01/13 07:04:43;;;;;;;373.25;45.75;;;4.70;99.90;;;;;;5108117;28;20047;-69
2022/01/13 07:07:10;;;;;;;380.00;46.20;;;6.70;99.90;;;;;;5094116;28;20059;-70
2022/01/13 07:09:36;;;;;;;345.15;45.40;;;;;;;;;;5113309;28;20440;-69
2022/01/13 07:12:02;;;;;;;345.27;44.25;;;4.80;99.90;;;;;;5094724;28;20047;-69
2022/01/13 07:14:28;;;;;;;398.77;47.10;;;;;;;;;;5112908;28;20093;-69
2022/01/13 07:16:55;;;;;;;358.98;44.78;;;4.70;99.90;;;;;;5111605;28;20074;-69
2022/01/13 07:19:21;;;;;;;348.48;45.33;;;;;;;;;;5112679;27;20376;-69
2022/01/13 07:21:47;;;;;;;391.48;47.58;;;4.40;99.90;;;;;;5111559;28;20385;-69
2022/01/13 07:24:14;;;;;;;380.27;46.50;;;4.40;99.90;;;;;;5111951;28;20047;-69
2022/01/13 07:26:40;;;;;;;383.85;47.85;;;;;;;;;;5112274;28;20047;-69
2022/01/13 07:29:07;;;;;;;410.40;47.30;;;;;;;;;;5095754;28;20124;-69
2022/01/13 07:31:33;;;;;;;426.13;49.60;;;4.50;99.90;;;;;;5112433;28;20131;-69
2022/01/13 07:34:01;;;;;;;376.17;47.53;;;4.30;99.90;;;;;;5114247;28;20047;-69
2022/01/13 07:36:27;;;;;;;477.55;53.42;;;;;;;;;;5096052;28;20059;-69
2022/01/13 07:38:52;;;;;;;395.83;47.47;;;4.50;99.90;;;;;;5112823;28;20043;-69
2022/01/13 07:41:18;;;;;;;437.08;50.35;;;4.60;99.90;;;;;;5112693;28;20078;-69
2022/01/13 07:43:48;;;;;;;415.90;46.92;;;4.40;99.90;;;;;;5113834;28;20131;-69
2022/01/13 07:46:14;;;;;;;412.13;47.67;;;4.40;99.90;;;;;;5113339;28;20402;-70
2022/01/13 07:48:40;;;;;;;388.98;46.92;;;;;;;;;;5112037;28;20043;-69
2022/01/13 07:51:07;;;;;;;427.73;49.70;;;;;;;;;;5094260;28;20116;-69
2022/01/13 07:53:36;;;;;;;405.65;48.08;;;4.60;99.90;;;;;;5112496;28;20105;-69
2022/01/13 07:56:02;;;;;;;404.40;47.92;;;;;;;;;;5112584;28;20073;-69
2022/01/13 07:58:28;;;;;;;427.38;49.03;;;;;;;;;;5112068;28;20051;-69
2022/01/13 08:00:53;;;;;;;476.27;49.97;;;4.40;99.90;;;;;;5111778;28;20036;-69
2022/01/13 08:03:20;;;;;;;473.60;51.33;;;4.40;99.90;;;;;;5111092;27;20099;-69
2022/01/13 08:05:46;;;;;;;431.70;47.95;;;;;;;;;;5111755;28;20082;-69
2022/01/13 08:08:12;;;;;;;394.88;47.10;;;;;;;;;;5112919;28;20059;-70
2022/01/13 08:10:37;;;;;;;401.83;46.88;;;4.50;99.90;;;;;;5111664;28;20047;-69
2022/01/13 08:13:03;;;;;;;425.52;48.72;;;4.50;99.90;;;;;;5111795;28;20084;-69
2022/01/13 08:15:29;;;;;;;405.30;46.08;;;4.50;99.90;;;;;;5111842;28;20391;-69
2022/01/13 08:20:39;;;;;;;447.92;50.22;;;4.70;99.90;;;;;;5103173;28;20169;-69
2022/01/13 08:23:06;;;;;;;414.13;48.40;;;;;;;;;;5113125;28;20126;-68
2022/01/13 08:25:32;;;;;;;424.65;48.17;;;4.40;99.90;;;;;;5112130;28;20068;-68
2022/01/13 08:27:58;;;;;;;367.73;46.83;;;4.80;99.90;;;;;;5111900;28;20043;-68
2022/01/13 08:30:24;;;;;;;383.95;46.80;;;4.50;99.90;;;;;;5111903;28;20031;-67
2022/01/13 08:32:50;;;;;;;387.65;46.95;;;4.50;99.90;;;;;;5112129;28;20043;-67
2022/01/13 08:35:16;;;;;;;352.98;45.05;;;;;;;;;;5110293;28;20039;-68
2022/01/13 08:37:43;;;;;;;343.85;44.17;;;;;;;;;;5111947;28;20055;-68
2022/01/13 08:40:12;;;;;;;341.42;45.08;;;4.60;99.90;;;;;;5110340;28;20136;-67
2022/01/13 08:42:38;;;;;;;395.75;47.83;;;4.70;99.90;;;;;;5111674;28;20101;-68
2022/01/13 08:45:06;;;;;;;332.48;44.30;;;4.80;99.90;;;;;;5111550;28;20414;-67
2022/01/13 08:47:32;;;;;;;363.65;44.67;;;4.70;99.90;;;;;;5110287;28;20044;-68
2022/01/13 08:49:57;;;;;;;309.13;42.13;;;4.60;99.90;;;;;;5111323;28;20529;-67
2022/01/13 08:52:24;;;;;;;353.85;44.05;;;4.60;99.90;;;;;;5111369;28;20448;-68
2022/01/13 08:54:51;;;;;;;308.45;42.45;;;4.80;99.90;;;;;;5093069;28;20077;-68
2022/01/13 08:57:17;;;;;;;336.27;43.58;;;4.90;99.90;;;;;;5111068;28;20133;-67
2022/01/13 08:59:43;;;;;;;332.42;43.80;;;4.70;99.90;;;;;;5109931;28;20047;-67
2022/01/13 09:02:10;;;;;;;306.45;43.97;;;4.90;99.90;;;;;;5111250;28;20506;-67
2022/01/13 09:04:37;;;;;;;339.33;43.33;;;;;;;;;;5110818;28;20043;-68
2022/01/13 09:07:03;;;;;;;330.52;44.00;;;4.90;99.90;;;;;;5109203;28;20055;-68
2022/01/13 09:09:29;;;;;;;338.30;43.83;;;;;;;;;;5109292;28;20047;-67
2022/01/13 09:11:55;;;;;;;292.55;42.05;;;5.00;99.90;;;;;;5110040;28;20058;-67
2022/01/13 09:14:25;;;;;;;294.85;42.30;;;4.50;99.90;;;;;;5111732;27;20039;-67
2022/01/13 09:16:53;;;;;;;302.83;41.05;;;4.80;99.90;;;;;;5111064;28;21378;-68
2022/01/13 09:19:19;;;;;;;341.48;45.42;;;4.80;99.90;;;;;;5108655;28;20068;-67
2022/01/13 09:21:46;;;;;;;304.10;42.88;;;4.70;99.90;;;;;;5110958;28;20046;-67
2022/01/13 09:24:18;;;;;;;289.98;42.45;;;4.80;99.90;;;;;;5110620;28;20377;-67
2022/01/13 09:26:45;;;;;;;337.00;43.85;;;4.80;99.90;;;;;;5109671;28;20081;-68
2022/01/13 09:29:11;;;;;;;317.10;43.75;;;;;;;;;;5109358;28;20050;-67
2022/01/13 09:31:39;;;;;;;297.17;43.40;;;4.80;99.90;;;;;;5110369;28;20061;-67
2022/01/13 09:34:07;;;;;;;321.42;43.28;;;4.90;99.90;;;;;;5110983;28;20036;-67
2022/01/13 09:36:33;;;;;;;276.85;42.08;;;4.70;99.90;;;;;;5110559;28;20046;-68
2022/01/13 09:39:02;;;;;;;294.77;43.05;;;4.80;99.90;;;;;;5110572;28;20521;-68
2022/01/13 09:41:30;;;;;;;357.00;45.65;;;4.50;99.90;;;;;;5110257;28;20394;-67
2022/01/13 09:44:02;;;;;;;315.95;44.03;;;5.00;99.90;;;;;;5111096;28;20376;-67
2022/01/13 09:46:30;;;;;;;290.83;43.20;;;5.50;99.90;;;;;;5108106;28;20040;-67
2022/01/13 09:49:02;;;;;;;340.80;45.70;;;4.80;99.90;;;;;;5092102;28;20047;-68
2022/01/13 09:51:29;;;;;;;336.67;46.25;;;5.10;99.90;;;;;;5110217;28;20042;-67
2022/01/13 09:53:55;;;;;;;338.15;46.28;;;;;;;;;;5110479;28;20534;-67
2022/01/13 09:56:21;;;;;;;359.60;46.78;;;;;;;;;;5110535;28;20158;-67
2022/01/13 09:58:47;;;;;;;335.58;46.38;;;;;;;;;;5109142;28;20479;-67
2022/01/13 10:01:14;;;;;;;320.27;46.88;;;5.10;99.90;;;;;;5108847;28;20482;-67
2022/01/13 10:03:40;;;;;;;322.58;46.75;;;;;;;;;;5109066;28;20055;-67
2022/01/13 10:06:13;;;;;;;379.65;51.38;;;5.30;99.90;;;;;;5109112;28;20043;-68
2022/01/13 10:08:44;;;;;;;291.13;42.42;;;5.20;99.90;;;;;;5108551;28;20055;-67
2022/01/13 10:11:32;;;;;;;318.23;44.63;;;5.10;99.90;;;;;;5106172;28;20123;-67
2022/01/13 10:17:09;;;;;;;306.58;43.15;;;5.10;99.90;;;;;;5100756;28;20035;-67
2022/01/13 10:19:44;;;;;;;265.25;41.80;;;5.10;99.90;;;;;;5108032;28;20424;-67
2022/01/13 10:22:12;;;;;;;297.88;44.00;;;4.90;99.90;;;;;;5110289;28;20501;-67
2022/01/13 10:24:44;;;;;;;307.65;43.08;;;5.00;99.90;;;;;;5110110;28;20043;-68
2022/01/13 10:27:10;;;;;;;300.40;44.50;;;5.00;99.90;;;;;;5106634;28;20056;-68
2022/01/13 10:29:47;;;;;;;360.73;45.70;;;5.10;99.90;;;;;;5090853;28;20044;-67
2022/01/13 10:32:17;;;;;;;336.92;46.35;;;5.20;99.90;;;;;;5108216;28;20048;-68
2022/01/13 10:34:46;;;;;;;356.05;46.33;;;5.20;99.90;;;;;;5108816;28;20051;-68
2022/01/13 10:37:30;;;;;;;356.45;46.83;;;5.00;99.90;;;;;;5109818;28;20134;-67
2022/01/13 10:40:08;;;;;;;324.02;46.42;;;5.10;99.90;;;;;;5108574;28;20035;-67
2022/01/13 10:45:08;;;;;;;323.48;45.08;;;5.70;99.90;;;;;;5114307;28;20048;-67
2022/01/13 10:47:38;;;;;;;286.92;42.45;;;5.20;99.90;;;;;;5112436;28;20050;-67
2022/01/13 10:50:08;;;;;;;267.20;43.70;;;4.60;99.90;;;;;;5112673;28;20067;-67
2022/01/13 10:52:35;;;;;;;280.60;43.53;;;;;;;;;;5112775;28;20414;-67
2022/01/13 10:55:11;;;;;;;277.48;43.88;;;5.40;99.90;;;;;;5113591;28;20051;-67
2022/01/13 10:57:42;;;;;;;242.02;40.75;;;5.20;99.90;;;;;;5111928;28;20040;-68
2022/01/13 11:00:34;;;;;;;312.75;45.00;;;5.60;99.90;;;;;;5112060;28;20073;-67
2022/01/13 11:03:11;;;;;;;216.63;38.70;;;5.30;99.90;;;;;;5111453;28;20479;-67
2022/01/13 11:05:54;;;;;;;235.88;42.15;;;5.20;99.90;;;;;;5112467;28;20536;-67
2022/01/13 11:08:32;;;;;;;230.60;41.47;;;5.30;99.90;;;;;;5113112;28;20055;-67
2022/01/13 11:11:01;;;;;;;253.63;43.40;;;5.70;99.90;;;;;;5111594;28;20442;-67
2022/01/13 11:13:29;;;;;;;229.60;40.22;;;5.60;99.90;;;;;;5112332;28;20046;-68
2022/01/13 11:15:57;;;;;;;239.02;41.95;;;5.20;99.90;;;;;;5112420;28;20043;-67
2022/01/13 11:18:28;;;;;;;231.63;40.80;;;5.40;99.90;;;;;;5112256;28;20047;-68
2022/01/13 11:20:55;;;;;;;228.70;39.95;;;5.30;99.90;;;;;;5112362;28;20591;-67
2022/01/13 11:23:21;;;;;;;235.35;42.15;;;5.50;99.90;;;;;;5095268;28;20043;-68
2022/01/13 11:25:51;;;;;;;243.00;42.17;;;4.10;99.90;;;;;;5111390;28;20052;-68
2022/01/13 11:28:18;;;;;;;243.85;41.30;;;;;;;;;;5112819;28;20044;-67
2022/01/13 11:30:46;;;;;;;225.68;41.22;;;;;;;;;;5112613;28;20075;-68
2022/01/13 11:33:12;;;;;;;216.93;39.38;;;5.30;99.90;;;;;;5113628;28;20122;-68
2022/01/13 11:35:45;;;;;;;209.15;38.10;;;5.60;99.90;;;;;;5111280;28;20040;-67
2022/01/13 11:38:11;;;;;;;201.77;38.42;;;;;;;;;;5112274;28;20035;-68
2022/01/13 11:40:43;;;;;;;225.15;39.03;;;5.30;99.90;;;;;;5111793;28;20051;-68
2022/01/13 11:43:30;;;;;;;211.88;39.17;;;5.40;99.90;;;;;;5111481;28;20360;-67
2022/01/13 11:46:10;;;;;;;191.80;37.00;;;5.50;99.90;;;;;;5112866;28;20082;-68
2022/01/13 11:48:41;;;;;;;195.27;39.28;;;;;;;;;;5112727;28;20487;-67
2022/01/13 11:51:15;;;;;;;201.98;40.63;;;5.40;99.90;;;;;;5112846;28;20043;-67
2022/01/13 11:53:56;;;;;;;211.77;40.97;;;5.20;99.90;;;;;;5111152;28;20520;-67
2022/01/13 11:56:23;;;;;;;220.48;40.15;;;6.00;99.90;;;;;;5113512;28;20044;-67
2022/01/13 11:58:50;;;;;;;221.18;41.20;;;5.30;99.90;;;;;;5112322;28;20482;-67
2022/01/13 12:01:38;;;;;;;242.50;40.40;;;5.30;99.90;;;;;;5113696;28;20062;-68
2022/01/13 12:04:06;;;;;;;208.13;39.55;;;5.30;99.90;;;;;;5111893;28;20123;-67
2022/01/13 12:06:32;;;;;;;180.85;36.97;;;;;;;;;;5110631;28;20043;-67
2022/01/13 12:08:58;;;;;;;198.68;38.42;;;;;;;;;;5111093;28;20047;-68
2022/01/13 12:11:42;;;;;;;175.63;38.40;;;5.20;99.90;;;;;;5111941;28;20035;-68
2022/01/13 12:14:27;;;;;;;180.18;38.45;;;5.40;99.90;;;;;;5120119;27;20066;-68
2022/01/13 12:17:08;;;;;;;175.38;36.50;;;5.30;99.90;;;;;;5111231;28;20039;-68
2022/01/13 12:19:50;;;;;;;173.00;36.22;;;5.30;99.90;;;;;;5093780;28;20086;-68
2022/01/13 12:22:55;;;;;;;155.75;34.60;;;5.60;99.90;;;;;;5111123;28;20069;-68
2022/01/13 12:25:21;;;;;;;186.18;37.13;;;5.50;99.90;;;;;;5112379;28;20043;-68
2022/01/13 12:27:49;;;;;;;166.30;34.92;;;5.30;99.90;;;;;;5112164;28;20035;-68
2022/01/13 12:30:16;;;;;;;138.68;32.88;;;;;;;;;;5118748;27;20044;-68
2022/01/13 12:32:47;;;;;;;147.95;33.30;;;5.50;99.90;;;;;;5110202;28;20039;-67
2022/01/13 12:35:22;;;;;;;118.40;31.52;;;5.30;99.90;;;;;;5110462;28;20067;-68
2022/01/13 12:38:01;;;;;;;130.63;32.40;;;5.30;99.90;;;;;;5110312;28;20104;-67
2022/01/13 12:40:27;;;;;;;132.63;32.33;;;;;;;;;;5111572;28;20467;-68
2022/01/13 12:42:53;;;;;;;127.65;32.08;;;5.40;99.90;;;;;;5110575;28;20399;-67
2022/01/13 12:45:29;;;;;;;113.47;31.30;;;5.30;99.90;;;;;;5110313;28;20047;-67
2022/01/13 12:47:57;;;;;;;107.90;30.90;;;5.30;99.90;;;;;;5112242;28;20459;-67
2022/01/13 12:50:26;;;;;;;104.18;29.65;;;5.60;99.90;;;;;;5111666;27;20085;-68
2022/01/13 12:52:58;;;;;;;93.70;29.25;;;5.50;99.90;;;;;;5111561;28;20044;-68
2022/01/13 12:55:25;;;;;;;85.75;26.88;;;5.80;99.90;;;;;;5109252;28;20071;-67
2022/01/13 12:57:54;;;;;;;90.30;29.25;;;5.30;99.90;;;;;;5111882;28;20128;-67
2022/01/13 13:00:22;;;;;;;85.18;28.20;;;5.70;99.90;;;;;;5112152;28;20032;-68
2022/01/13 13:02:55;;;;;;;85.25;27.73;;;5.50;99.90;;;;;;5111050;28;20057;-67
2022/01/13 13:05:43;;;;;;;81.65;28.02;;;5.40;99.90;;;;;;5110492;28;20055;-68
2022/01/13 13:08:12;;;;;;;90.22;29.65;;;5.30;99.90;;;;;;5109426;28;20120;-67
2022/01/13 13:10:44;;;;;;;101.07;30.17;;;5.40;99.90;;;;;;5112009;27;20479;-68
2022/01/13 13:13:13;;;;;;;104.03;30.63;;;5.50;99.90;;;;;;5094471;28;20055;-67
2022/01/13 13:15:40;;;;;;;105.18;30.75;;;;;;;;;;5112739;28;20035;-67
2022/01/13 13:18:06;;;;;;;98.43;31.00;;;5.90;99.90;;;;;;5111077;28;20487;-68
2022/01/13 13:20:38;;;;;;;112.32;32.45;;;5.70;99.90;;;;;;5094463;28;20479;-67
2022/01/13 13:23:06;;;;;;;85.07;29.13;;;5.60;99.90;;;;;;5112239;28;20028;-67
2022/01/13 13:25:36;;;;;;;96.75;29.70;;;5.40;99.90;;;;;;5110256;28;20150;-67